sensor_id;sensor_type;location;lat;lon;timestamp;P1;durP1;ratioP1;P2;durP2;ratioP2
351;SDS011;164;50.784;6.496;2023-01-05T00:00:14;8.38;;;3.10;;
351;SDS011;164;50.784;6.496;2023-01-05T00:02:42;6.65;;;2.67;;
351;SDS011;164;50.784;6.496;2023-01-05T00:05:09;8.07;;;3.25;;
351;SDS011;164;50.784;6.496;2023-01-05T00:07:36;7.20;;;2.80;;
351;SDS011;164;50.784;6.496;2023-01-05T00:10:03;7.75;;;3.72;;
351;SDS011;164;50.784;6.496;2023-01-05T00:12:52;12.18;;;3.28;;
351;SDS011;164;50.784;6.496;2023-01-05T00:15:38;10.73;;;3.25;;
351;SDS011;164;50.784;6.496;2023-01-05T00:18:23;10.38;;;2.50;;
351;SDS011;164;50.784;6.496;2023-01-05T00:21:16;11.77;;;3.75;;
351;SDS011;164;50.784;6.496;2023-01-05T00:24:00;12.20;;;3.30;;
351;SDS011;164;50.784;6.496;2023-01-05T00:26:28;12.25;;;2.85;;
351;SDS011;164;50.784;6.496;2023-01-05T00:28:55;11.57;;;3.63;;
351;SDS011;164;50.784;6.496;2023-01-05T00:31:23;11.68;;;3.78;;
351;SDS011;164;50.784;6.496;2023-01-05T00:33:50;13.80;;;4.50;;
351;SDS011;164;50.784;6.496;2023-01-05T00:36:18;9.50;;;2.75;;
351;SDS011;164;50.784;6.496;2023-01-05T00:38:45;6.53;;;2.80;;
351;SDS011;164;50.784;6.496;2023-01-05T00:41:12;15.07;;;4.07;;
351;SDS011;164;50.784;6.496;2023-01-05T00:43:39;11.93;;;3.90;;
351;SDS011;164;50.784;6.496;2023-01-05T00:46:06;8.40;;;3.00;;
351;SDS011;164;50.784;6.496;2023-01-05T00:48:35;15.18;;;3.53;;
351;SDS011;164;50.784;6.496;2023-01-05T00:51:02;15.73;;;4.18;;
351;SDS011;164;50.784;6.496;2023-01-05T00:53:29;12.48;;;3.75;;
351;SDS011;164;50.784;6.496;2023-01-05T00:55:57;9.25;;;3.08;;
351;SDS011;164;50.784;6.496;2023-01-05T00:58:24;8.80;;;3.35;;
351;SDS011;164;50.784;6.496;2023-01-05T01:00:51;11.50;;;3.58;;
351;SDS011;164;50.784;6.496;2023-01-05T01:03:18;11.13;;;4.70;;
351;SDS011;164;50.784;6.496;2023-01-05T01:05:51;8.55;;;3.70;;
351;SDS011;164;50.784;6.496;2023-01-05T01:08:21;9.90;;;4.97;;
351;SDS011;164;50.784;6.496;2023-01-05T01:10:48;10.60;;;3.67;;
351;SDS011;164;50.784;6.496;2023-01-05T01:13:15;10.55;;;3.45;;
351;SDS011;164;50.784;6.496;2023-01-05T01:15:43;10.80;;;4.43;;
351;SDS011;164;50.784;6.496;2023-01-05T01:18:10;13.05;;;4.30;;
351;SDS011;164;50.784;6.496;2023-01-05T01:20:38;14.40;;;4.15;;
351;SDS011;164;50.784;6.496;2023-01-05T01:23:07;15.35;;;3.95;;
351;SDS011;164;50.784;6.496;2023-01-05T01:25:36;9.98;;;3.92;;
351;SDS011;164;50.784;6.496;2023-01-05T01:28:04;13.23;;;4.00;;
351;SDS011;164;50.784;6.496;2023-01-05T01:30:31;8.27;;;3.10;;
351;SDS011;164;50.784;6.496;2023-01-05T01:32:58;17.95;;;4.00;;
351;SDS011;164;50.784;6.496;2023-01-05T01:35:26;16.23;;;4.35;;
351;SDS011;164;50.784;6.496;2023-01-05T01:37:53;12.25;;;3.45;;
351;SDS011;164;50.784;6.496;2023-01-05T01:40:21;11.38;;;3.63;;
351;SDS011;164;50.784;6.496;2023-01-05T01:42:49;12.30;;;4.20;;
351;SDS011;164;50.784;6.496;2023-01-05T01:45:17;13.70;;;4.85;;
351;SDS011;164;50.784;6.496;2023-01-05T01:47:46;13.75;;;5.35;;
351;SDS011;164;50.784;6.496;2023-01-05T01:50:16;13.63;;;4.80;;
351;SDS011;164;50.784;6.496;2023-01-05T01:52:44;8.73;;;3.80;;
351;SDS011;164;50.784;6.496;2023-01-05T01:55:11;11.60;;;4.68;;
351;SDS011;164;50.784;6.496;2023-01-05T01:57:40;10.02;;;3.65;;
351;SDS011;164;50.784;6.496;2023-01-05T02:00:09;9.90;;;3.75;;
351;SDS011;164;50.784;6.496;2023-01-05T02:02:38;11.15;;;4.00;;
351;SDS011;164;50.784;6.496;2023-01-05T02:05:07;17.13;;;4.60;;
351;SDS011;164;50.784;6.496;2023-01-05T02:07:38;14.50;;;3.55;;
351;SDS011;164;50.784;6.496;2023-01-05T02:10:06;11.30;;;4.35;;
351;SDS011;164;50.784;6.496;2023-01-05T02:12:36;10.55;;;4.10;;
351;SDS011;164;50.784;6.496;2023-01-05T02:15:09;15.27;;;3.97;;
351;SDS011;164;50.784;6.496;2023-01-05T02:17:41;15.25;;;5.03;;
351;SDS011;164;50.784;6.496;2023-01-05T02:23:00;12.68;;;3.55;;
351;SDS011;164;50.784;6.496;2023-01-05T02:25:42;9.52;;;4.00;;
351;SDS011;164;50.784;6.496;2023-01-05T02:28:13;16.15;;;4.55;;
351;SDS011;164;50.784;6.496;2023-01-05T02:30:57;14.45;;;3.78;;
351;SDS011;164;50.784;6.496;2023-01-05T02:33:27;12.25;;;3.25;;
351;SDS011;164;50.784;6.496;2023-01-05T02:35:57;16.10;;;4.75;;
351;SDS011;164;50.784;6.496;2023-01-05T02:38:31;9.80;;;3.97;;
351;SDS011;164;50.784;6.496;2023-01-05T02:41:01;12.25;;;4.75;;
351;SDS011;164;50.784;6.496;2023-01-05T02:43:30;10.93;;;4.00;;
351;SDS011;164;50.784;6.496;2023-01-05T02:45:59;14.55;;;4.90;;
351;SDS011;164;50.784;6.496;2023-01-05T02:48:26;15.27;;;4.53;;
351;SDS011;164;50.784;6.496;2023-01-05T02:50:54;15.77;;;4.10;;
351;SDS011;164;50.784;6.496;2023-01-05T02:53:25;14.55;;;4.15;;
351;SDS011;164;50.784;6.496;2023-01-05T02:55:56;10.52;;;3.90;;
351;SDS011;164;50.784;6.496;2023-01-05T02:58:24;11.32;;;3.60;;
351;SDS011;164;50.784;6.496;2023-01-05T03:00:55;17.08;;;4.35;;
351;SDS011;164;50.784;6.496;2023-01-05T03:03:26;11.32;;;5.25;;
351;SDS011;164;50.784;6.496;2023-01-05T03:05:57;8.77;;;3.88;;
351;SDS011;164;50.784;6.496;2023-01-05T03:08:27;13.27;;;4.70;;
351;SDS011;164;50.784;6.496;2023-01-05T03:10:58;13.15;;;4.72;;
351;SDS011;164;50.784;6.496;2023-01-05T03:13:43;13.63;;;4.18;;
351;SDS011;164;50.784;6.496;2023-01-05T03:16:15;12.90;;;4.72;;
351;SDS011;164;50.784;6.496;2023-01-05T03:18:45;10.95;;;3.50;;
351;SDS011;164;50.784;6.496;2023-01-05T03:21:27;15.85;;;4.57;;
351;SDS011;164;50.784;6.496;2023-01-05T03:23:55;15.45;;;4.05;;
351;SDS011;164;50.784;6.496;2023-01-05T03:26:41;10.77;;;3.58;;
351;SDS011;164;50.784;6.496;2023-01-05T03:29:26;17.92;;;5.50;;
351;SDS011;164;50.784;6.496;2023-01-05T03:32:15;12.23;;;4.35;;
351;SDS011;164;50.784;6.496;2023-01-05T03:35:03;7.60;;;3.63;;
351;SDS011;164;50.784;6.496;2023-01-05T03:37:49;8.80;;;4.15;;
351;SDS011;164;50.784;6.496;2023-01-05T03:40:20;11.32;;;3.67;;
351;SDS011;164;50.784;6.496;2023-01-05T03:42:47;10.98;;;3.35;;
351;SDS011;164;50.784;6.496;2023-01-05T03:45:15;15.02;;;4.53;;
351;SDS011;164;50.784;6.496;2023-01-05T03:47:43;17.73;;;5.50;;
351;SDS011;164;50.784;6.496;2023-01-05T03:50:12;15.05;;;5.10;;
351;SDS011;164;50.784;6.496;2023-01-05T03:52:39;13.95;;;3.90;;
351;SDS011;164;50.784;6.496;2023-01-05T03:55:07;22.58;;;4.85;;
351;SDS011;164;50.784;6.496;2023-01-05T03:57:34;13.20;;;4.20;;
351;SDS011;164;50.784;6.496;2023-01-05T04:00:02;11.68;;;3.88;;
351;SDS011;164;50.784;6.496;2023-01-05T04:02:29;16.95;;;4.60;;
351;SDS011;164;50.784;6.496;2023-01-05T04:04:57;14.63;;;4.10;;
351;SDS011;164;50.784;6.496;2023-01-05T04:07:25;10.57;;;4.43;;
351;SDS011;164;50.784;6.496;2023-01-05T04:09:53;10.70;;;4.13;;
351;SDS011;164;50.784;6.496;2023-01-05T04:12:20;11.43;;;4.13;;
351;SDS011;164;50.784;6.496;2023-01-05T04:14:47;13.82;;;3.60;;
351;SDS011;164;50.784;6.496;2023-01-05T04:17:14;12.98;;;4.05;;
351;SDS011;164;50.784;6.496;2023-01-05T04:27:58;14.35;;;4.05;;
351;SDS011;164;50.784;6.496;2023-01-05T04:30:25;15.23;;;3.15;;
351;SDS011;164;50.784;6.496;2023-01-05T04:32:52;19.83;;;4.97;;
351;SDS011;164;50.784;6.496;2023-01-05T04:35:20;18.95;;;5.20;;
351;SDS011;164;50.784;6.496;2023-01-05T04:37:47;10.25;;;4.93;;
351;SDS011;164;50.784;6.496;2023-01-05T04:40:14;19.17;;;6.70;;
351;SDS011;164;50.784;6.496;2023-01-05T04:42:41;17.70;;;7.20;;
351;SDS011;164;50.784;6.496;2023-01-05T04:45:10;15.88;;;5.43;;
351;SDS011;164;50.784;6.496;2023-01-05T04:47:37;13.85;;;4.05;;
351;SDS011;164;50.784;6.496;2023-01-05T04:50:05;18.42;;;5.70;;
351;SDS011;164;50.784;6.496;2023-01-05T04:52:32;17.70;;;5.10;;
351;SDS011;164;50.784;6.496;2023-01-05T04:54:59;18.10;;;4.85;;
351;SDS011;164;50.784;6.496;2023-01-05T04:57:26;15.20;;;4.72;;
351;SDS011;164;50.784;6.496;2023-01-05T04:59:53;12.77;;;4.10;;
351;SDS011;164;50.784;6.496;2023-01-05T05:02:22;11.55;;;5.03;;
351;SDS011;164;50.784;6.496;2023-01-05T05:04:49;16.55;;;5.13;;
351;SDS011;164;50.784;6.496;2023-01-05T05:07:16;12.07;;;3.72;;
351;SDS011;164;50.784;6.496;2023-01-05T05:09:43;17.92;;;5.10;;
351;SDS011;164;50.784;6.496;2023-01-05T05:12:11;15.18;;;5.00;;
351;SDS011;164;50.784;6.496;2023-01-05T05:14:39;16.50;;;4.72;;
351;SDS011;164;50.784;6.496;2023-01-05T05:17:09;16.40;;;5.75;;
351;SDS011;164;50.784;6.496;2023-01-05T05:19:42;12.88;;;3.60;;
351;SDS011;164;50.784;6.496;2023-01-05T05:22:10;17.95;;;4.47;;
351;SDS011;164;50.784;6.496;2023-01-05T05:24:37;15.23;;;4.45;;
351;SDS011;164;50.784;6.496;2023-01-05T05:27:04;13.45;;;4.00;;
351;SDS011;164;50.784;6.496;2023-01-05T05:29:32;11.60;;;4.03;;
351;SDS011;164;50.784;6.496;2023-01-05T05:31:59;21.08;;;5.07;;
351;SDS011;164;50.784;6.496;2023-01-05T05:34:26;13.50;;;4.10;;
351;SDS011;164;50.784;6.496;2023-01-05T05:36:54;11.63;;;3.83;;
351;SDS011;164;50.784;6.496;2023-01-05T05:39:23;22.52;;;4.80;;
351;SDS011;164;50.784;6.496;2023-01-05T05:41:54;17.67;;;4.50;;
351;SDS011;164;50.784;6.496;2023-01-05T05:44:27;15.43;;;5.65;;
351;SDS011;164;50.784;6.496;2023-01-05T05:46:54;14.32;;;4.85;;
351;SDS011;164;50.784;6.496;2023-01-05T05:49:21;15.50;;;4.88;;
351;SDS011;164;50.784;6.496;2023-01-05T05:51:48;13.93;;;5.30;;
351;SDS011;164;50.784;6.496;2023-01-05T05:54:17;11.02;;;3.88;;
351;SDS011;164;50.784;6.496;2023-01-05T05:56:44;19.58;;;6.05;;
351;SDS011;164;50.784;6.496;2023-01-05T05:59:12;12.95;;;4.65;;
351;SDS011;164;50.784;6.496;2023-01-05T06:01:39;11.75;;;4.68;;
351;SDS011;164;50.784;6.496;2023-01-05T06:04:06;17.55;;;4.53;;
351;SDS011;164;50.784;6.496;2023-01-05T06:06:33;14.07;;;4.75;;
351;SDS011;164;50.784;6.496;2023-01-05T06:09:00;11.70;;;3.95;;
351;SDS011;164;50.784;6.496;2023-01-05T06:11:29;17.58;;;4.68;;
351;SDS011;164;50.784;6.496;2023-01-05T06:13:56;17.77;;;5.70;;
351;SDS011;164;50.784;6.496;2023-01-05T06:16:23;15.13;;;4.20;;
351;SDS011;164;50.784;6.496;2023-01-05T06:18:50;17.50;;;5.28;;
351;SDS011;164;50.784;6.496;2023-01-05T06:21:17;11.88;;;4.35;;
351;SDS011;164;50.784;6.496;2023-01-05T06:23:46;18.42;;;6.20;;
351;SDS011;164;50.784;6.496;2023-01-05T06:26:13;14.55;;;6.50;;
351;SDS011;164;50.784;6.496;2023-01-05T06:28:42;15.43;;;4.70;;
351;SDS011;164;50.784;6.496;2023-01-05T06:31:09;12.30;;;4.47;;
351;SDS011;164;50.784;6.496;2023-01-05T06:33:37;23.58;;;5.72;;
351;SDS011;164;50.784;6.496;2023-01-05T06:36:04;13.68;;;4.28;;
351;SDS011;164;50.784;6.496;2023-01-05T06:38:31;17.33;;;4.97;;
351;SDS011;164;50.784;6.496;2023-01-05T06:40:59;16.23;;;5.38;;
351;SDS011;164;50.784;6.496;2023-01-05T06:43:26;16.55;;;5.05;;
351;SDS011;164;50.784;6.496;2023-01-05T06:45:55;15.18;;;5.15;;
351;SDS011;164;50.784;6.496;2023-01-05T06:48:23;17.98;;;6.25;;
351;SDS011;164;50.784;6.496;2023-01-05T06:50:53;13.60;;;5.22;;
351;SDS011;164;50.784;6.496;2023-01-05T06:53:32;15.50;;;5.00;;
351;SDS011;164;50.784;6.496;2023-01-05T06:55:59;14.90;;;6.63;;
351;SDS011;164;50.784;6.496;2023-01-05T06:58:26;15.95;;;5.63;;
351;SDS011;164;50.784;6.496;2023-01-05T07:00:55;16.70;;;5.60;;
351;SDS011;164;50.784;6.496;2023-01-05T07:03:22;18.38;;;5.20;;
351;SDS011;164;50.784;6.496;2023-01-05T07:05:50;16.20;;;5.57;;
351;SDS011;164;50.784;6.496;2023-01-05T07:08:17;16.00;;;5.68;;
351;SDS011;164;50.784;6.496;2023-01-05T07:10:44;14.70;;;4.75;;
351;SDS011;164;50.784;6.496;2023-01-05T07:13:11;24.27;;;6.45;;
351;SDS011;164;50.784;6.496;2023-01-05T07:15:38;18.60;;;5.45;;
351;SDS011;164;50.784;6.496;2023-01-05T07:18:07;19.65;;;6.55;;
351;SDS011;164;50.784;6.496;2023-01-05T07:20:35;13.43;;;5.07;;
351;SDS011;164;50.784;6.496;2023-01-05T07:23:02;18.10;;;4.57;;
351;SDS011;164;50.784;6.496;2023-01-05T07:25:30;15.13;;;5.35;;
351;SDS011;164;50.784;6.496;2023-01-05T07:27:57;18.63;;;5.72;;
351;SDS011;164;50.784;6.496;2023-01-05T07:30:24;10.70;;;5.25;;
351;SDS011;164;50.784;6.496;2023-01-05T07:32:51;16.25;;;4.70;;
351;SDS011;164;50.784;6.496;2023-01-05T07:35:20;16.05;;;5.03;;
351;SDS011;164;50.784;6.496;2023-01-05T07:37:47;17.15;;;5.35;;
351;SDS011;164;50.784;6.496;2023-01-05T07:40:15;12.77;;;5.05;;
351;SDS011;164;50.784;6.496;2023-01-05T07:42:42;20.67;;;6.10;;
351;SDS011;164;50.784;6.496;2023-01-05T07:45:09;15.27;;;5.45;;
351;SDS011;164;50.784;6.496;2023-01-05T07:47:37;18.40;;;5.30;;
351;SDS011;164;50.784;6.496;2023-01-05T07:50:05;19.27;;;5.90;;
351;SDS011;164;50.784;6.496;2023-01-05T07:52:34;13.43;;;4.60;;
351;SDS011;164;50.784;6.496;2023-01-05T07:55:01;14.50;;;4.82;;
351;SDS011;164;50.784;6.496;2023-01-05T07:57:29;20.38;;;6.43;;
351;SDS011;164;50.784;6.496;2023-01-05T07:59:56;19.88;;;6.47;;
351;SDS011;164;50.784;6.496;2023-01-05T08:02:23;23.52;;;6.65;;
351;SDS011;164;50.784;6.496;2023-01-05T08:04:51;17.55;;;5.57;;
351;SDS011;164;50.784;6.496;2023-01-05T08:07:18;13.82;;;5.75;;
351;SDS011;164;50.784;6.496;2023-01-05T08:09:47;20.80;;;5.75;;
351;SDS011;164;50.784;6.496;2023-01-05T08:12:32;20.88;;;5.60;;
351;SDS011;164;50.784;6.496;2023-01-05T08:15:19;15.93;;;5.45;;
351;SDS011;164;50.784;6.496;2023-01-05T08:17:46;17.48;;;5.80;;
351;SDS011;164;50.784;6.496;2023-01-05T08:20:13;21.88;;;4.32;;
351;SDS011;164;50.784;6.496;2023-01-05T08:22:41;17.55;;;5.78;;
351;SDS011;164;50.784;6.496;2023-01-05T08:25:10;17.45;;;5.30;;
351;SDS011;164;50.784;6.496;2023-01-05T08:27:37;17.60;;;6.13;;
351;SDS011;164;50.784;6.496;2023-01-05T08:30:04;25.92;;;7.10;;
351;SDS011;164;50.784;6.496;2023-01-05T08:32:35;20.75;;;6.25;;
351;SDS011;164;50.784;6.496;2023-01-05T08:35:02;20.00;;;6.20;;
351;SDS011;164;50.784;6.496;2023-01-05T08:37:29;14.77;;;5.50;;
351;SDS011;164;50.784;6.496;2023-01-05T08:39:57;19.40;;;6.60;;
351;SDS011;164;50.784;6.496;2023-01-05T08:42:25;20.77;;;6.25;;
351;SDS011;164;50.784;6.496;2023-01-05T08:44:53;22.70;;;6.50;;
351;SDS011;164;50.784;6.496;2023-01-05T08:47:20;27.25;;;7.65;;
351;SDS011;164;50.784;6.496;2023-01-05T08:49:47;21.77;;;6.72;;
351;SDS011;164;50.784;6.496;2023-01-05T08:52:14;18.45;;;8.43;;
351;SDS011;164;50.784;6.496;2023-01-05T08:54:42;19.83;;;5.75;;
351;SDS011;164;50.784;6.496;2023-01-05T08:57:09;21.52;;;6.72;;
351;SDS011;164;50.784;6.496;2023-01-05T08:59:43;20.65;;;6.90;;
351;SDS011;164;50.784;6.496;2023-01-05T09:02:14;25.55;;;6.80;;
351;SDS011;164;50.784;6.496;2023-01-05T09:04:41;23.25;;;6.38;;
351;SDS011;164;50.784;6.496;2023-01-05T09:07:09;16.15;;;6.75;;
351;SDS011;164;50.784;6.496;2023-01-05T09:09:36;24.25;;;6.90;;
351;SDS011;164;50.784;6.496;2023-01-05T09:12:03;16.88;;;6.30;;
351;SDS011;164;50.784;6.496;2023-01-05T09:14:31;18.48;;;5.30;;
351;SDS011;164;50.784;6.496;2023-01-05T09:16:59;19.30;;;7.57;;
351;SDS011;164;50.784;6.496;2023-01-05T09:19:27;17.88;;;5.20;;
351;SDS011;164;50.784;6.496;2023-01-05T09:21:54;19.25;;;6.60;;
351;SDS011;164;50.784;6.496;2023-01-05T09:24:21;16.33;;;6.10;;
351;SDS011;164;50.784;6.496;2023-01-05T09:26:48;19.95;;;6.65;;
351;SDS011;164;50.784;6.496;2023-01-05T09:29:15;14.32;;;5.55;;
351;SDS011;164;50.784;6.496;2023-01-05T09:31:43;21.42;;;7.05;;
351;SDS011;164;50.784;6.496;2023-01-05T09:34:11;21.77;;;6.90;;
351;SDS011;164;50.784;6.496;2023-01-05T09:36:38;20.65;;;6.47;;
351;SDS011;164;50.784;6.496;2023-01-05T09:39:06;13.82;;;5.10;;
351;SDS011;164;50.784;6.496;2023-01-05T09:41:34;17.35;;;5.80;;
351;SDS011;164;50.784;6.496;2023-01-05T09:44:02;15.90;;;5.53;;
351;SDS011;164;50.784;6.496;2023-01-05T09:46:31;16.05;;;5.15;;
351;SDS011;164;50.784;6.496;2023-01-05T09:48:59;17.33;;;6.03;;
351;SDS011;164;50.784;6.496;2023-01-05T09:51:29;14.65;;;5.88;;
351;SDS011;164;50.784;6.496;2023-01-05T09:53:56;21.42;;;5.88;;
351;SDS011;164;50.784;6.496;2023-01-05T09:56:26;17.83;;;5.45;;
351;SDS011;164;50.784;6.496;2023-01-05T09:58:55;27.15;;;7.18;;
351;SDS011;164;50.784;6.496;2023-01-05T10:01:26;16.45;;;5.65;;
351;SDS011;164;50.784;6.496;2023-01-05T10:03:54;15.95;;;5.13;;
351;SDS011;164;50.784;6.496;2023-01-05T10:06:24;20.05;;;6.00;;
351;SDS011;164;50.784;6.496;2023-01-05T10:08:53;20.25;;;5.05;;
351;SDS011;164;50.784;6.496;2023-01-05T10:11:22;15.65;;;5.43;;
351;SDS011;164;50.784;6.496;2023-01-05T10:14:09;17.52;;;6.47;;
351;SDS011;164;50.784;6.496;2023-01-05T10:16:38;15.63;;;6.25;;
351;SDS011;164;50.784;6.496;2023-01-05T10:19:08;20.60;;;6.22;;
351;SDS011;164;50.784;6.496;2023-01-05T10:21:42;19.52;;;6.30;;
351;SDS011;164;50.784;6.496;2023-01-05T10:24:17;19.55;;;6.28;;
351;SDS011;164;50.784;6.496;2023-01-05T10:26:47;24.05;;;7.18;;
351;SDS011;164;50.784;6.496;2023-01-05T10:29:17;13.63;;;5.80;;
351;SDS011;164;50.784;6.496;2023-01-05T10:31:46;14.63;;;5.15;;
351;SDS011;164;50.784;6.496;2023-01-05T10:34:20;20.80;;;6.50;;
351;SDS011;164;50.784;6.496;2023-01-05T10:36:57;13.23;;;5.15;;
351;SDS011;164;50.784;6.496;2023-01-05T10:39:32;18.38;;;4.75;;
351;SDS011;164;50.784;6.496;2023-01-05T10:42:03;14.45;;;4.82;;
351;SDS011;164;50.784;6.496;2023-01-05T10:44:34;14.57;;;5.55;;
351;SDS011;164;50.784;6.496;2023-01-05T10:47:07;18.30;;;5.07;;
351;SDS011;164;50.784;6.496;2023-01-05T10:49:39;16.35;;;5.00;;
351;SDS011;164;50.784;6.496;2023-01-05T10:52:11;18.77;;;5.80;;
351;SDS011;164;50.784;6.496;2023-01-05T10:54:46;18.40;;;6.00;;
351;SDS011;164;50.784;6.496;2023-01-05T10:57:36;16.05;;;5.65;;
351;SDS011;164;50.784;6.496;2023-01-05T11:00:09;15.65;;;4.95;;
351;SDS011;164;50.784;6.496;2023-01-05T11:02:40;16.75;;;4.50;;
351;SDS011;164;50.784;6.496;2023-01-05T11:05:15;13.85;;;5.90;;
351;SDS011;164;50.784;6.496;2023-01-05T11:07:48;15.27;;;6.28;;
351;SDS011;164;50.784;6.496;2023-01-05T11:10:21;11.82;;;5.30;;
351;SDS011;164;50.784;6.496;2023-01-05T11:12:50;14.07;;;5.43;;
351;SDS011;164;50.784;6.496;2023-01-05T11:15:17;13.27;;;5.22;;
351;SDS011;164;50.784;6.496;2023-01-05T11:17:45;13.80;;;5.85;;
351;SDS011;164;50.784;6.496;2023-01-05T11:20:15;19.98;;;5.45;;
351;SDS011;164;50.784;6.496;2023-01-05T11:22:43;13.98;;;4.22;;
351;SDS011;164;50.784;6.496;2023-01-05T11:25:25;16.17;;;4.85;;
351;SDS011;164;50.784;6.496;2023-01-05T11:28:05;13.05;;;4.65;;
351;SDS011;164;50.784;6.496;2023-01-05T11:30:35;19.35;;;4.60;;
351;SDS011;164;50.784;6.496;2023-01-05T11:33:02;11.35;;;4.32;;
351;SDS011;164;50.784;6.496;2023-01-05T11:35:38;14.95;;;5.40;;
351;SDS011;164;50.784;6.496;2023-01-05T11:38:05;17.40;;;5.53;;
351;SDS011;164;50.784;6.496;2023-01-05T11:40:46;16.05;;;5.68;;
351;SDS011;164;50.784;6.496;2023-01-05T11:43:14;20.42;;;5.10;;
351;SDS011;164;50.784;6.496;2023-01-05T11:45:44;18.70;;;5.53;;
351;SDS011;164;50.784;6.496;2023-01-05T11:48:13;16.95;;;6.10;;
351;SDS011;164;50.784;6.496;2023-01-05T11:50:44;10.57;;;4.28;;
351;SDS011;164;50.784;6.496;2023-01-05T11:53:20;19.60;;;5.55;;
351;SDS011;164;50.784;6.496;2023-01-05T11:55:59;22.80;;;8.10;;
351;SDS011;164;50.784;6.496;2023-01-05T11:58:30;15.85;;;5.13;;
351;SDS011;164;50.784;6.496;2023-01-05T12:06:31;19.48;;;6.60;;
351;SDS011;164;50.784;6.496;2023-01-05T12:09:02;17.23;;;5.20;;
351;SDS011;164;50.784;6.496;2023-01-05T12:11:34;11.57;;;4.22;;
351;SDS011;164;50.784;6.496;2023-01-05T12:14:06;18.55;;;4.57;;
351;SDS011;164;50.784;6.496;2023-01-05T12:16:43;10.90;;;5.15;;
351;SDS011;164;50.784;6.496;2023-01-05T12:19:18;20.10;;;5.28;;
351;SDS011;164;50.784;6.496;2023-01-05T12:21:51;19.08;;;7.47;;
351;SDS011;164;50.784;6.496;2023-01-05T12:24:29;13.07;;;5.00;;
351;SDS011;164;50.784;6.496;2023-01-05T12:27:05;16.88;;;5.75;;
351;SDS011;164;50.784;6.496;2023-01-05T12:29:41;19.40;;;5.13;;
351;SDS011;164;50.784;6.496;2023-01-05T12:32:16;21.42;;;7.47;;
351;SDS011;164;50.784;6.496;2023-01-05T12:34:55;14.32;;;4.90;;
351;SDS011;164;50.784;6.496;2023-01-05T12:37:28;16.35;;;5.38;;
351;SDS011;164;50.784;6.496;2023-01-05T12:42:57;18.17;;;6.15;;
351;SDS011;164;50.784;6.496;2023-01-05T12:48:14;14.13;;;5.90;;
351;SDS011;164;50.784;6.496;2023-01-05T12:50:44;14.25;;;5.10;;
351;SDS011;164;50.784;6.496;2023-01-05T12:53:16;22.83;;;5.82;;
351;SDS011;164;50.784;6.496;2023-01-05T12:55:48;19.58;;;5.45;;
351;SDS011;164;50.784;6.496;2023-01-05T12:58:23;18.60;;;4.55;;
351;SDS011;164;50.784;6.496;2023-01-05T13:00:52;18.65;;;5.07;;
351;SDS011;164;50.784;6.496;2023-01-05T13:03:22;12.73;;;4.68;;
351;SDS011;164;50.784;6.496;2023-01-05T13:05:55;20.63;;;6.13;;
351;SDS011;164;50.784;6.496;2023-01-05T13:08:23;13.23;;;5.97;;
351;SDS011;164;50.784;6.496;2023-01-05T13:10:54;13.27;;;6.38;;
351;SDS011;164;50.784;6.496;2023-01-05T13:13:27;13.10;;;5.13;;
351;SDS011;164;50.784;6.496;2023-01-05T13:15:55;20.95;;;5.40;;
351;SDS011;164;50.784;6.496;2023-01-05T13:18:26;17.45;;;5.60;;
351;SDS011;164;50.784;6.496;2023-01-05T13:20:56;20.10;;;5.43;;
351;SDS011;164;50.784;6.496;2023-01-05T13:23:26;17.02;;;5.00;;
351;SDS011;164;50.784;6.496;2023-01-05T13:25:55;16.48;;;5.40;;
351;SDS011;164;50.784;6.496;2023-01-05T13:28:24;21.05;;;6.03;;
351;SDS011;164;50.784;6.496;2023-01-05T13:36:36;16.98;;;4.68;;
351;SDS011;164;50.784;6.496;2023-01-05T13:39:18;19.20;;;5.43;;
351;SDS011;164;50.784;6.496;2023-01-05T13:42:09;18.08;;;4.93;;
351;SDS011;164;50.784;6.496;2023-01-05T13:44:49;17.38;;;7.18;;
351;SDS011;164;50.784;6.496;2023-01-05T13:47:22;13.57;;;6.20;;
351;SDS011;164;50.784;6.496;2023-01-05T13:50:00;13.35;;;5.00;;
351;SDS011;164;50.784;6.496;2023-01-05T13:52:35;20.30;;;5.40;;
351;SDS011;164;50.784;6.496;2023-01-05T13:55:08;9.95;;;3.58;;
351;SDS011;164;50.784;6.496;2023-01-05T13:57:37;13.57;;;5.47;;
351;SDS011;164;50.784;6.496;2023-01-05T14:00:07;15.55;;;5.15;;
351;SDS011;164;50.784;6.496;2023-01-05T14:02:36;15.70;;;5.60;;
351;SDS011;164;50.784;6.496;2023-01-05T14:05:05;14.75;;;5.30;;
351;SDS011;164;50.784;6.496;2023-01-05T14:07:35;17.80;;;5.00;;
351;SDS011;164;50.784;6.496;2023-01-05T14:10:15;22.75;;;6.18;;
351;SDS011;164;50.784;6.496;2023-01-05T14:12:45;16.98;;;5.88;;
351;SDS011;164;50.784;6.496;2023-01-05T14:15:31;17.88;;;5.93;;
351;SDS011;164;50.784;6.496;2023-01-05T14:17:59;19.60;;;5.43;;
351;SDS011;164;50.784;6.496;2023-01-05T14:20:31;15.60;;;5.28;;
351;SDS011;164;50.784;6.496;2023-01-05T14:23:00;17.38;;;5.50;;
351;SDS011;164;50.784;6.496;2023-01-05T14:28:41;16.67;;;4.80;;
351;SDS011;164;50.784;6.496;2023-01-05T14:34:13;17.52;;;4.90;;
351;SDS011;164;50.784;6.496;2023-01-05T14:36:42;17.10;;;5.65;;
351;SDS011;164;50.784;6.496;2023-01-05T14:39:24;11.02;;;5.30;;
351;SDS011;164;50.784;6.496;2023-01-05T14:41:56;21.05;;;5.90;;
351;SDS011;164;50.784;6.496;2023-01-05T14:44:25;14.10;;;5.63;;
351;SDS011;164;50.784;6.496;2023-01-05T14:46:54;15.68;;;5.45;;
351;SDS011;164;50.784;6.496;2023-01-05T14:49:24;13.68;;;5.95;;
351;SDS011;164;50.784;6.496;2023-01-05T14:51:53;13.70;;;5.55;;
351;SDS011;164;50.784;6.496;2023-01-05T14:57:33;12.55;;;5.72;;
351;SDS011;164;50.784;6.496;2023-01-05T15:00:03;16.77;;;5.70;;
351;SDS011;164;50.784;6.496;2023-01-05T15:02:41;15.82;;;7.10;;
351;SDS011;164;50.784;6.496;2023-01-05T15:05:10;19.30;;;6.25;;
351;SDS011;164;50.784;6.496;2023-01-05T15:07:40;18.10;;;5.45;;
351;SDS011;164;50.784;6.496;2023-01-05T15:10:11;13.88;;;6.53;;
351;SDS011;164;50.784;6.496;2023-01-05T15:15:38;16.60;;;6.43;;
351;SDS011;164;50.784;6.496;2023-01-05T15:18:14;11.70;;;5.53;;
351;SDS011;164;50.784;6.496;2023-01-05T15:20:54;20.85;;;6.15;;
351;SDS011;164;50.784;6.496;2023-01-05T15:26:15;15.43;;;5.78;;
351;SDS011;164;50.784;6.496;2023-01-05T15:28:51;16.48;;;6.93;;
351;SDS011;164;50.784;6.496;2023-01-05T15:31:27;14.98;;;5.95;;
351;SDS011;164;50.784;6.496;2023-01-05T15:33:58;16.10;;;6.00;;
351;SDS011;164;50.784;6.496;2023-01-05T15:36:27;16.90;;;6.35;;
351;SDS011;164;50.784;6.496;2023-01-05T15:38:55;16.70;;;5.68;;
351;SDS011;164;50.784;6.496;2023-01-05T15:41:23;19.33;;;5.60;;
351;SDS011;164;50.784;6.496;2023-01-05T15:43:52;20.25;;;6.40;;
351;SDS011;164;50.784;6.496;2023-01-05T15:46:21;21.65;;;6.50;;
351;SDS011;164;50.784;6.496;2023-01-05T15:48:50;17.63;;;5.60;;
351;SDS011;164;50.784;6.496;2023-01-05T15:51:23;12.32;;;5.72;;
351;SDS011;164;50.784;6.496;2023-01-05T15:53:54;14.32;;;5.55;;
351;SDS011;164;50.784;6.496;2023-01-05T15:56:23;20.40;;;7.03;;
351;SDS011;164;50.784;6.496;2023-01-05T15:58:51;22.83;;;7.60;;
351;SDS011;164;50.784;6.496;2023-01-05T16:01:18;16.88;;;5.93;;
351;SDS011;164;50.784;6.496;2023-01-05T16:03:46;18.00;;;7.18;;
351;SDS011;164;50.784;6.496;2023-01-05T16:06:16;12.98;;;6.65;;
351;SDS011;164;50.784;6.496;2023-01-05T16:08:44;22.50;;;7.47;;
351;SDS011;164;50.784;6.496;2023-01-05T16:11:13;15.95;;;6.10;;
351;SDS011;164;50.784;6.496;2023-01-05T16:13:42;14.07;;;6.65;;
351;SDS011;164;50.784;6.496;2023-01-05T16:16:12;12.50;;;5.85;;
351;SDS011;164;50.784;6.496;2023-01-05T16:18:41;16.80;;;6.40;;
351;SDS011;164;50.784;6.496;2023-01-05T16:21:12;16.85;;;6.75;;
351;SDS011;164;50.784;6.496;2023-01-05T16:23:43;19.65;;;5.95;;
351;SDS011;164;50.784;6.496;2023-01-05T16:26:13;20.00;;;6.10;;
351;SDS011;164;50.784;6.496;2023-01-05T16:28:41;17.48;;;6.68;;
351;SDS011;164;50.784;6.496;2023-01-05T16:31:12;20.05;;;5.32;;